Time;durP1;ratioP1;P1;durP2;ratioP2;P2;SDS_P1;SDS_P2;PMS_P1;PMS_P2;Temp;Humidity;BMP_temperature;BMP_pressure;BME280_temperature;BME280_humidity;BME280_pressure;Samples;Min_cycle;Max_cycle;Signal;HPM_P1;HPM_P2
2022/08/27 00:01:15;;;;;;;7.43;1.70;;;;;;;18.47;79.70;101391.09;5080639;28;20032;-82
2022/08/27 00:03:44;;;;;;;7.13;1.30;;;;;;;18.47;80.04;101393.72;5066606;28;20033;-83
2022/08/27 00:06:14;;;;;;;6.70;2.35;;;;;;;18.42;80.16;101393.50;5051847;28;20041;-82
2022/08/27 00:08:41;;;;;;;7.07;1.52;;;;;;;18.35;80.55;101395.28;5060567;28;20044;-83
2022/08/27 00:11:08;;;;;;;4.45;1.40;;;;;;;18.36;80.61;101385.56;5055197;28;20171;-84
2022/08/27 00:13:34;;;;;;;6.65;1.58;;;;;;;18.34;80.94;101393.63;5049136;28;20382;-84
2022/08/27 00:16:00;;;;;;;5.68;1.67;;;;;;;18.48;80.46;101387.47;5035447;28;20037;-84
2022/08/27 00:18:25;;;;;;;11.45;2.25;;;;;;;18.41;80.79;101378.75;5024248;28;20036;-83
2022/08/27 00:20:51;;;;;;;5.63;1.30;;;;;;;18.33;81.22;101372.81;5050761;28;20024;-84
2022/08/27 00:23:16;;;;;;;7.95;1.73;;;;;;;18.33;81.50;101380.69;5046407;28;20037;-83
2022/08/27 00:25:42;;;;;;;7.18;2.25;;;;;;;18.27;81.82;101375.25;5027968;28;20036;-84
2022/08/27 00:28:08;;;;;;;23.70;2.55;;;;;;;18.21;81.71;101381.25;5029591;28;20788;-83
2022/08/27 00:30:33;;;;;;;5.35;1.38;;;;;;;18.25;81.84;101376.41;5047734;28;20442;-83
2022/08/27 00:32:59;;;;;;;7.63;1.85;;;;;;;18.19;81.90;101385.06;5044661;28;20588;-83
2022/08/27 00:35:25;;;;;;;7.55;1.58;;;;;;;18.21;81.70;101380.44;5030524;28;20580;-84
2022/08/27 00:37:51;;;;;;;11.38;1.35;;;;;;;18.15;82.10;101382.00;5046418;28;20028;-84
2022/08/27 00:40:20;;;;;;;9.88;1.48;;;;;;;18.08;82.59;101376.75;5045745;28;20037;-82
2022/08/27 00:42:46;;;;;;;9.18;1.70;;;;;;;18.03;82.63;101376.50;5062019;28;20032;-83
2022/08/27 00:45:15;;;;;;;9.10;1.70;;;;;;;18.00;82.82;101376.06;5031242;28;20039;-84
2022/08/27 00:47:47;;;;;;;7.00;1.77;;;;;;;17.93;83.44;101380.44;5030176;28;20091;-83
2022/08/27 00:50:19;;;;;;;10.40;1.90;;;;;;;17.86;83.46;101368.09;5026775;28;20330;-84
2022/08/27 00:52:45;;;;;;;6.20;1.33;;;;;;;17.93;82.49;101369.94;5025579;28;20037;-82
2022/08/27 00:55:20;;;;;;;6.97;1.42;;;;;;;17.94;82.54;101371.59;5046568;28;20128;-84
2022/08/27 00:57:55;;;;;;;4.95;1.40;;;;;;;17.94;81.83;101367.13;5034569;28;20041;-83
2022/08/27 01:00:21;;;;;;;9.77;1.50;;;;;;;17.85;81.95;101363.03;5032572;28;20032;-84
2022/08/27 01:02:47;;;;;;;9.43;1.52;;;;;;;17.78;81.81;101370.84;5048812;28;20069;-84
2022/08/27 01:05:17;;;;;;;2.50;1.13;;;;;;;17.78;81.76;101364.75;5030733;28;20028;-84
2022/08/27 01:07:47;;;;;;;6.57;1.98;;;;;;;17.93;81.30;101362.88;5051078;28;20680;-84
2022/08/27 01:10:15;;;;;;;4.00;1.40;;;;;;;17.88;81.05;101362.66;5031010;28;20037;-83
2022/08/27 01:12:41;;;;;;;7.25;1.58;;;;;;;17.90;80.79;101368.53;5052069;28;20036;-84
2022/08/27 01:15:11;;;;;;;9.63;2.10;;;;;;;17.89;81.11;101359.03;5029390;28;20305;-83
2022/08/27 01:17:38;;;;;;;4.00;1.38;;;;;;;17.93;81.08;101355.00;5043290;28;20038;-84
2022/08/27 01:20:08;;;;;;;4.18;1.05;;;;;;;17.97;80.95;101364.16;5044683;28;20029;-85
2022/08/27 01:22:40;;;;;;;6.15;1.52;;;;;;;17.94;79.97;101359.28;5044796;28;20025;-84
2022/08/27 01:25:10;;;;;;;11.25;2.03;;;;;;;17.96;79.52;101364.34;5030243;28;20894;-84
2022/08/27 01:27:37;;;;;;;12.23;1.77;;;;;;;17.95;79.48;101362.69;5047234;28;20306;-84
2022/08/27 01:30:04;;;;;;;9.70;1.55;;;;;;;17.92;79.57;101358.66;5040991;28;20501;-84
2022/08/27 01:32:32;;;;;;;5.82;1.30;;;;;;;17.84;79.67;101353.53;5029610;28;20029;-84
2022/08/27 01:35:00;;;;;;;6.65;1.77;;;;;;;17.90;79.75;101348.34;5046142;28;20504;-84
2022/08/27 01:37:27;;;;;;;15.77;3.33;;;;;;;17.86;79.50;101354.19;5031596;28;20048;-83
2022/08/27 01:39:55;;;;;;;9.10;2.97;;;;;;;17.89;79.11;101357.22;5042403;28;20040;-83
2022/08/27 01:42:29;;;;;;;5.80;1.13;;;;;;;17.85;78.88;101358.59;5038707;28;20033;-84
2022/08/27 01:44:58;;;;;;;6.78;1.50;;;;;;;17.76;79.50;101353.66;5041802;28;20312;-84
2022/08/27 01:47:26;;;;;;;11.98;2.00;;;;;;;17.87;78.93;101355.78;5044645;28;20060;-84
2022/08/27 01:49:52;;;;;;;7.47;1.48;;;;;;;17.79;78.85;101356.72;5043576;28;20118;-84
2022/08/27 01:52:21;;;;;;;7.03;1.55;;;;;;;17.86;78.86;101349.72;5033602;28;20041;-84
2022/08/27 01:54:47;;;;;;;6.28;1.75;;;;;;;17.84;78.76;101350.91;5044539;28;20080;-84
2022/08/27 01:57:13;;;;;;;6.07;1.63;;;;;;;17.82;78.64;101347.63;5040650;28;20124;-84
2022/08/27 01:59:39;;;;;;;7.93;1.95;;;;;;;17.80;78.54;101344.41;5041496;28;20124;-83
2022/08/27 02:02:06;;;;;;;3.47;1.40;;;;;;;17.78;78.74;101336.75;5043666;28;20210;-84
2022/08/27 02:04:32;;;;;;;9.70;2.13;;;;;;;17.87;77.98;101337.41;5028257;28;20029;-84
2022/08/27 02:06:58;;;;;;;4.93;1.40;;;;;;;17.82;77.68;101343.22;5028549;28;23244;-84
2022/08/27 02:09:25;;;;;;;6.05;1.58;;;;;;;17.74;77.47;101335.47;5057001;28;20481;-84
2022/08/27 02:11:51;;;;;;;9.30;2.15;;;;;;;17.75;77.05;101342.34;5030733;28;20036;-84
2022/08/27 02:14:17;;;;;;;8.60;1.88;;;;;;;17.83;77.39;101341.41;5040557;28;21848;-84
2022/08/27 02:16:42;;;;;;;7.00;1.85;;;;;;;17.74;77.45;101342.53;5043750;28;20101;-84
2022/08/27 02:19:08;;;;;;;6.38;1.30;;;;;;;17.85;77.24;101342.84;5042955;28;20033;-84
2022/08/27 02:21:34;;;;;;;9.45;1.40;;;;;;;17.76;77.00;101343.16;5043543;28;20037;-83
2022/08/27 02:23:59;;;;;;;11.32;2.55;;;;;;;17.71;77.22;101344.53;5042970;28;20032;-83
2022/08/27 02:26:26;;;;;;;6.22;1.48;;;;;;;17.70;77.59;101344.72;5024022;28;20040;-84
2022/08/27 02:28:52;;;;;;;2.60;1.08;;;;;;;17.72;77.58;101342.72;5026393;28;20040;-84
2022/08/27 02:31:18;;;;;;;6.05;1.23;;;;;;;17.67;77.74;101335.44;5023678;28;20037;-84
2022/08/27 02:33:43;;;;;;;8.25;1.50;;;;;;;17.71;77.90;101341.13;5042001;28;20037;-84
2022/08/27 02:36:09;;;;;;;10.98;1.77;;;;;;;17.73;77.78;101343.56;5044524;28;20040;-84
2022/08/27 02:38:35;;;;;;;7.15;1.95;;;;;;;17.75;77.93;101347.59;5026915;28;20029;-85
2022/08/27 02:41:00;;;;;;;5.25;1.73;;;;;;;17.65;78.12;101342.69;5027508;28;20029;-83
2022/08/27 02:43:26;;;;;;;4.55;1.30;;;;;;;17.60;78.71;101350.31;5025930;28;20037;-84
2022/08/27 02:45:52;;;;;;;6.70;2.47;;;;;;;17.61;78.61;101340.63;5044202;28;20025;-84
2022/08/27 02:48:18;;;;;;;7.05;1.27;;;;;;;17.52;79.24;101345.19;5042150;28;20937;-84
2022/08/27 02:50:46;;;;;;;6.07;1.48;;;;;;;17.54;79.15;101345.00;5044144;28;20724;-84
2022/08/27 02:53:11;;;;;;;7.47;1.45;;;;;;;17.54;79.23;101345.00;5023280;28;20119;-83
2022/08/27 02:55:37;;;;;;;13.68;2.10;;;;;;;17.62;78.84;101339.63;5042251;28;20148;-84
2022/08/27 02:58:03;;;;;;;6.95;1.42;;;;;;;17.65;78.99;101334.00;5038648;28;20029;-84
2022/08/27 03:00:29;;;;;;;6.80;1.95;;;;;;;17.65;79.06;101334.81;5024211;28;20021;-84
2022/08/27 03:02:55;;;;;;;9.50;1.50;;;;;;;17.65;78.30;101332.19;5046584;28;20033;-84
2022/08/27 03:05:21;;;;;;;8.07;1.65;;;;;;;17.69;78.29;101328.19;5025886;28;20037;-83
2022/08/27 03:07:48;;;;;;;7.28;2.00;;;;;;;17.65;78.27;101332.19;5025809;28;20028;-83
2022/08/27 03:10:16;;;;;;;8.88;1.25;;;;;;;17.65;78.22;101329.56;5041668;28;20482;-83
2022/08/27 03:12:42;;;;;;;3.45;1.23;;;;;;;17.66;78.14;101327.75;5042690;28;20025;-83
2022/08/27 03:15:12;;;;;;;3.70;1.50;;;;;;;17.58;78.23;101326.09;5044270;28;20045;-84
2022/08/27 03:20:22;;;;;;;6.57;1.75;;;;;;;17.69;78.62;101322.94;5045293;28;20047;-84
2022/08/27 03:22:48;;;;;;;8.75;1.40;;;;;;;17.71;78.44;101331.44;5042793;28;20031;-83
2022/08/27 03:25:13;;;;;;;6.63;1.73;;;;;;;17.70;78.45;101331.63;5026038;28;20029;-84
2022/08/27 03:27:39;;;;;;;5.90;1.73;;;;;;;17.67;78.53;101337.25;5047005;28;20036;-85
2022/08/27 03:30:11;;;;;;;6.63;1.40;;;;;;;17.67;77.85;101335.44;5046466;28;20493;-84
2022/08/27 03:32:37;;;;;;;8.98;1.27;;;;;;;17.70;77.57;101334.25;5044386;28;20740;-84
2022/08/27 03:35:03;;;;;;;5.50;1.52;;;;;;;17.67;77.60;101330.19;5027462;28;20028;-84
2022/08/27 03:37:28;;;;;;;6.95;1.50;;;;;;;17.60;77.70;101334.56;5027055;28;20083;-84
2022/08/27 03:39:54;;;;;;;7.20;2.15;;;;;;;17.57;78.28;101336.75;5028706;28;20048;-84
2022/08/27 03:42:21;;;;;;;5.32;1.42;;;;;;;17.62;78.04;101337.81;5028817;28;20028;-83
2022/08/27 03:44:47;;;;;;;3.25;1.48;;;;;;;17.54;78.39;101339.75;5045077;28;20995;-84
2022/08/27 03:47:13;;;;;;;6.50;1.63;;;;;;;17.51;78.64;101333.88;5045457;28;20037;-84
2022/08/27 03:49:38;;;;;;;5.35;2.00;;;;;;;17.52;78.80;101342.59;5044702;28;20037;-83
2022/08/27 03:52:04;;;;;;;8.13;1.63;;;;;;;17.61;78.31;101332.75;5047506;28;20028;-84
2022/08/27 03:54:31;;;;;;;12.55;2.20;;;;;;;17.55;78.26;101331.69;5046177;28;20044;-85
2022/08/27 03:56:57;;;;;;;8.65;1.83;;;;;;;17.52;78.61;101332.91;5041541;28;20060;-82
2022/08/27 03:59:22;;;;;;;2.95;1.40;;;;;;;17.55;78.38;101334.31;5042425;28;20087;-83
2022/08/27 04:01:47;;;;;;;9.00;1.40;;;;;;;17.51;78.65;101330.47;5043657;28;20025;-83
2022/08/27 04:04:13;;;;;;;5.85;1.75;;;;;;;17.50;79.13;101336.72;5044307;28;20040;-84
2022/08/27 04:06:40;;;;;;;12.98;2.03;;;;;;;17.50;79.03;101334.09;5041078;28;20766;-84
2022/08/27 04:09:05;;;;;;;4.82;1.10;;;;;;;17.49;79.01;101332.47;5024286;28;20016;-84
2022/08/27 04:11:33;;;;;;;4.75;1.58;;;;;;;17.53;78.81;101346.81;5040669;28;20033;-84
2022/08/27 04:13:59;;;;;;;6.18;1.10;;;;;;;17.44;79.25;101340.91;5045509;28;20037;-85
2022/08/27 04:16:25;;;;;;;7.03;1.45;;;;;;;17.46;79.31;101352.00;5044151;28;20036;-84
2022/08/27 04:18:54;;;;;;;5.80;1.40;;;;;;;17.43;79.50;101349.75;5041641;28;20056;-85
2022/08/27 04:21:21;;;;;;;6.82;1.85;;;;;;;17.42;79.58;101342.91;5042361;28;20035;-84
2022/08/27 04:23:47;;;;;;;8.30;1.65;;;;;;;17.38;79.75;101353.94;5037743;28;20437;-81
2022/08/27 04:26:13;;;;;;;6.28;1.40;;;;;;;17.30;79.89;101349.63;5027583;28;20033;-84
2022/08/27 04:28:39;;;;;;;9.77;1.70;;;;;;;17.26;80.02;101354.44;5041562;28;20559;-84
2022/08/27 04:31:06;;;;;;;5.97;1.27;;;;;;;17.26;80.17;101354.44;5026799;28;20021;-85
2022/08/27 04:33:31;;;;;;;7.40;1.70;;;;;;;17.28;80.30;101356.88;5044246;28;20025;-85
2022/08/27 04:36:04;;;;;;;7.80;1.50;;;;;;;17.24;80.12;101358.25;5042914;28;20410;-84
2022/08/27 04:38:30;;;;;;;9.05;1.40;;;;;;;17.29;79.68;101350.63;5054604;28;20037;-84
2022/08/27 04:43:40;;;;;;;8.00;1.70;;;;;;;17.21;78.62;101358.59;5043103;28;20029;-83
2022/08/27 04:46:06;;;;;;;7.07;1.38;;;;;;;17.21;78.59;101367.28;5025478;28;20049;-83
2022/08/27 04:48:31;;;;;;;7.85;1.45;;;;;;;17.21;78.28;101366.47;5028447;28;20107;-84
2022/08/27 04:50:57;;;;;;;6.45;1.38;;;;;;;17.30;78.07;101373.22;5040981;28;20024;-84
2022/08/27 04:53:22;;;;;;;5.00;1.38;;;;;;;17.27;77.59;101371.78;5038817;28;20054;-83
2022/08/27 04:55:51;;;;;;;11.05;2.08;;;;;;;17.28;77.28;101362.91;5026467;28;20635;-82
2022/08/27 04:58:19;;;;;;;8.98;2.42;;;;;;;17.28;76.94;101364.72;5025638;28;20528;-84
2022/08/27 05:00:54;;;;;;;4.80;1.40;;;;;;;17.25;77.15;101363.31;5026823;28;20026;-83
2022/08/27 05:03:23;;;;;;;7.40;1.42;;;;;;;17.26;76.03;101364.13;5043228;28;20037;-84
2022/08/27 05:05:49;;;;;;;4.05;1.45;;;;;;;17.25;76.40;101371.16;5043380;28;20037;-84
2022/08/27 05:08:16;;;;;;;5.72;1.65;;;;;;;17.17;75.97;101368.66;5041151;28;20033;-84
2022/08/27 05:10:43;;;;;;;4.60;1.00;;;;;;;17.22;75.54;101370.72;5030081;28;20032;-84
2022/08/27 05:13:09;;;;;;;6.32;1.80;;;;;;;17.21;75.75;101369.09;5024861;28;20137;-82
2022/08/27 05:15:35;;;;;;;7.43;1.40;;;;;;;17.26;75.78;101380.63;5026472;28;20029;-84
2022/08/27 05:18:02;;;;;;;5.40;1.20;;;;;;;17.34;75.25;101376.28;5040541;28;20066;-84
2022/08/27 05:20:29;;;;;;;5.40;1.50;;;;;;;17.27;75.17;101371.78;5045377;28;20017;-83
2022/08/27 05:22:55;;;;;;;3.63;1.50;;;;;;;17.24;75.02;101377.41;5057676;28;20100;-84
2022/08/27 05:25:22;;;;;;;4.20;1.27;;;;;;;17.36;75.20;101379.53;5042660;28;20032;-84
2022/08/27 05:27:47;;;;;;;6.57;1.17;;;;;;;17.37;74.47;101378.53;5040016;28;20064;-82
2022/08/27 05:30:13;;;;;;;4.13;1.35;;;;;;;17.35;73.76;101378.72;5042707;28;20044;-83
2022/08/27 05:32:38;;;;;;;6.00;1.10;;;;;;;17.29;74.13;101388.13;5041028;28;20033;-81
2022/08/27 05:35:05;;;;;;;8.20;1.30;;;;;;;17.17;73.82;101387.00;5042928;28;20407;-83
2022/08/27 05:37:33;;;;;;;4.88;1.27;;;;;;;17.23;73.88;101385.44;5024397;28;20020;-84
2022/08/27 05:40:03;;;;;;;4.47;1.55;;;;;;;17.17;74.18;101386.19;5023544;28;20115;-84
2022/08/27 05:42:30;;;;;;;9.63;2.20;;;;;;;17.16;74.41;101389.78;5038030;28;20040;-84
2022/08/27 05:44:56;;;;;;;6.80;1.77;;;;;;;17.22;73.89;101389.06;5058853;28;20698;-83
2022/08/27 05:47:22;;;;;;;9.35;1.52;;;;;;;17.17;73.76;101387.00;5025609;28;20028;-84
2022/08/27 05:49:51;;;;;;;10.43;2.40;;;;;;;17.16;73.94;101395.03;5041786;28;20033;-84
2022/08/27 05:52:17;;;;;;;6.25;1.65;;;;;;;17.16;74.21;101397.66;5041850;28;20161;-84
2022/08/27 05:54:42;;;;;;;4.55;1.35;;;;;;;17.17;73.88;101396.66;5041419;28;20040;-84
2022/08/27 05:57:08;;;;;;;4.35;1.33;;;;;;;17.15;73.96;101396.84;5027594;28;20649;-84
2022/08/27 06:02:19;;;;;;;4.75;1.90;;;;;;;17.15;74.01;101396.84;5019599;28;20048;-84
2022/08/27 06:04:45;;;;;;;7.07;1.73;;;;;;;17.18;73.89;101393.03;5040539;28;20022;-84
2022/08/27 06:07:11;;;;;;;8.73;2.15;;;;;;;17.12;74.24;101392.78;5039204;28;20039;-83
2022/08/27 06:09:38;;;;;;;13.63;2.33;;;;;;;17.13;74.33;101390.97;5039578;28;20020;-85
2022/08/27 06:12:04;;;;;;;9.98;1.88;;;;;;;17.10;74.18;101397.41;5052984;28;20037;-81
2022/08/27 06:14:29;;;;;;;5.35;1.27;;;;;;;17.12;74.37;101392.78;5029023;28;20061;-83
2022/08/27 06:16:55;;;;;;;4.03;1.25;;;;;;;17.13;74.05;101396.22;5021621;28;20029;-84
2022/08/27 06:19:21;;;;;;;5.82;1.25;;;;;;;17.12;74.31;101395.41;5041832;28;20029;-83
2022/08/27 06:21:47;;;;;;;4.47;1.48;;;;;;;17.16;74.28;101395.03;5041577;28;20492;-83
2022/08/27 06:24:13;;;;;;;7.50;2.35;;;;;;;17.19;74.08;101398.09;5040422;28;20054;-83
2022/08/27 06:26:41;;;;;;;5.15;1.42;;;;;;;17.16;73.91;101393.25;5026857;28;20486;-83
2022/08/27 06:29:08;;;;;;;5.43;1.67;;;;;;;17.14;74.44;101397.84;5037642;28;20336;-82
2022/08/27 06:31:34;;;;;;;7.13;1.75;;;;;;;17.21;74.17;101395.28;5027654;28;20029;-84
2022/08/27 06:34:02;;;;;;;6.80;1.65;;;;;;;17.17;73.79;101392.22;5023669;28;20197;-83
2022/08/27 06:36:28;;;;;;;10.02;1.27;;;;;;;17.15;74.06;101398.66;5038042;28;20093;-83
2022/08/27 06:38:55;;;;;;;9.70;1.60;;;;;;;17.16;74.23;101401.09;5037104;28;20044;-84
2022/08/27 06:41:23;;;;;;;6.10;1.58;;;;;;;17.17;74.09;101392.22;5027155;28;20063;-84
2022/08/27 06:43:49;;;;;;;6.60;1.60;;;;;;;17.24;73.88;101400.97;5024468;28;20029;-83
2022/08/27 06:46:17;;;;;;;24.55;10.30;;;;;;;17.24;74.00;101397.56;5022796;28;20037;-82
2022/08/27 06:48:44;;;;;;;9.02;3.58;;;;;;;17.26;73.89;101396.34;5038050;28;20418;-84
2022/08/27 06:51:14;;;;;;;5.93;1.90;;;;;;;17.23;73.65;101393.28;5038504;28;20048;-84
2022/08/27 06:53:40;;;;;;;5.30;1.67;;;;;;;17.25;74.08;101401.78;5041889;28;20039;-84
2022/08/27 06:56:06;;;;;;;7.38;1.75;;;;;;;17.32;73.98;101393.00;5041099;28;20033;-84
2022/08/27 06:58:33;;;;;;;5.97;1.52;;;;;;;17.33;72.95;101401.69;5025922;28;20041;-84
2022/08/27 07:00:59;;;;;;;4.97;1.50;;;;;;;17.27;73.33;101386.69;5040308;28;20061;-84
2022/08/27 07:03:24;;;;;;;10.77;1.10;;;;;;;17.26;73.54;101396.34;5038556;28;20063;-84
2022/08/27 07:05:50;;;;;;;12.57;2.22;;;;;;;17.29;74.04;101396.00;5028749;28;20048;-83
2022/08/27 07:08:15;;;;;;;4.57;1.33;;;;;;;17.31;74.25;101399.25;5023958;28;20056;-84
2022/08/27 07:10:41;;;;;;;5.47;1.17;;;;;;;17.38;74.15;101395.88;5044604;28;20036;-84
2022/08/27 07:13:07;;;;;;;4.63;1.20;;;;;;;17.37;73.15;101399.50;5038596;28;21233;-85
2022/08/27 07:15:33;;;;;;;9.93;2.00;;;;;;;17.42;73.40;101400.56;5026707;28;20029;-84
2022/08/27 07:17:59;;;;;;;6.03;1.50;;;;;;;17.39;72.69;101400.94;5042930;28;20086;-84
2022/08/27 07:20:25;;;;;;;6.70;1.38;;;;;;;17.41;72.46;101406.78;5025207;28;20025;-83
2022/08/27 07:22:53;;;;;;;4.03;1.38;;;;;;;17.38;72.55;101396.69;5039766;28;20039;-85
2022/08/27 07:25:19;;;;;;;5.50;1.83;;;;;;;17.35;73.26;101397.06;5025425;28;20036;-84
2022/08/27 07:27:48;;;;;;;5.50;1.42;;;;;;;17.46;72.29;101401.81;5029008;28;20152;-84
2022/08/27 07:30:15;;;;;;;7.88;1.38;;;;;;;17.46;72.69;101406.22;5040067;28;20036;-83
2022/08/27 07:32:43;;;;;;;6.78;1.35;;;;;;;17.57;72.75;101407.53;5024227;28;20116;-84
2022/08/27 07:35:09;;;;;;;9.32;2.00;;;;;;;17.58;72.88;101410.00;5039499;28;20069;-83
2022/08/27 07:37:36;;;;;;;3.25;1.25;;;;;;;17.52;73.06;101406.31;5040588;28;20625;-84
2022/08/27 07:40:08;;;;;;;8.80;2.53;;;;;;;17.61;73.17;101400.94;5026689;28;20029;-84
2022/08/27 07:45:18;;;;;;;6.43;1.50;;;;;;;17.64;72.23;101403.97;5041796;28;20048;-84
2022/08/27 07:47:44;;;;;;;4.18;1.60;;;;;;;17.62;72.39;101410.44;5034332;28;20033;-83
2022/08/27 07:50:10;;;;;;;7.45;1.58;;;;;;;17.58;72.60;101412.63;5024136;28;20036;-84
2022/08/27 07:52:35;;;;;;;21.30;4.70;;;;;;;17.73;72.23;101407.31;5027029;28;20466;-83
2022/08/27 07:55:01;;;;;;;6.60;1.38;;;;;;;17.67;72.48;101419.34;5029411;28;20658;-82
2022/08/27 07:57:26;;;;;;;7.28;1.50;;;;;;;17.66;72.35;101416.91;5038946;28;20048;-84
2022/08/27 07:59:52;;;;;;;9.35;1.73;;;;;;;17.70;73.04;101416.34;5027747;28;20437;-83
2022/08/27 08:02:18;;;;;;;6.18;2.28;;;;;;;17.69;73.04;101421.78;5044102;28;20091;-83
2022/08/27 08:04:49;;;;;;;8.35;1.77;;;;;;;17.70;72.35;101420.78;5043208;28;20094;-84
2022/08/27 08:07:14;;;;;;;4.95;1.98;;;;;;;17.71;72.40;101417.97;5045173;28;20056;-83
2022/08/27 08:09:40;;;;;;;4.95;1.10;;;;;;;17.73;72.07;101424.84;5043661;28;20048;-84
2022/08/27 08:12:06;;;;;;;7.93;1.50;;;;;;;17.75;72.86;101417.59;5042970;28;20032;-82
2022/08/27 08:14:32;;;;;;;8.75;1.63;;;;;;;17.75;72.15;101418.41;5027826;28;20044;-83
2022/08/27 08:17:00;;;;;;;3.20;1.38;;;;;;;17.78;72.19;101417.22;5027255;28;20057;-84
2022/08/27 08:19:26;;;;;;;6.65;1.65;;;;;;;17.80;72.34;101416.03;5041636;28;20025;-84
2022/08/27 08:21:52;;;;;;;4.57;1.75;;;;;;;17.86;72.30;101415.31;5044613;28;20068;-84
2022/08/27 08:24:18;;;;;;;6.70;1.48;;;;;;;17.92;72.08;101420.81;5030201;28;20119;-84
2022/08/27 08:26:44;;;;;;;7.45;2.13;;;;;;;17.93;72.11;101423.22;5046234;28;20125;-84
2022/08/27 08:29:10;;;;;;;8.35;1.70;;;;;;;17.96;72.00;101422.84;5028996;28;20025;-83
2022/08/27 08:31:35;;;;;;;3.22;1.20;;;;;;;18.22;71.72;101421.44;5031592;28;20098;-83
2022/08/27 08:34:01;;;;;;;7.55;1.83;;;;;;;18.24;71.94;101420.22;5046418;28;20033;-83
2022/08/27 08:36:26;;;;;;;4.43;1.95;;;;;;;18.13;71.44;101426.00;5046622;28;20711;-84
2022/08/27 08:38:53;;;;;;;12.05;1.83;;;;;;;18.17;71.83;101429.06;5029680;28;20037;-83
2022/08/27 08:41:21;;;;;;;4.57;1.45;;;;;;;18.17;71.26;101426.44;5058074;28;20047;-84
2022/08/27 08:43:50;;;;;;;12.43;3.70;;;;;;;18.21;71.49;101432.94;5031568;28;20028;-84
2022/08/27 08:46:45;;;;;;;6.53;1.60;;;;;;;18.18;71.15;101436.75;5042301;28;20072;-84
2022/08/27 08:49:25;;;;;;;11.00;2.03;;;;;;;18.14;71.30;101435.53;5021516;28;20246;-84
2022/08/27 08:51:57;;;;;;;6.28;1.70;;;;;;;18.19;70.91;101443.59;5027426;28;20148;-85
2022/08/27 08:54:25;;;;;;;13.98;2.75;;;;;;;18.23;71.31;101438.78;5030236;28;20117;-84
2022/08/27 08:57:12;;;;;;;4.50;1.55;;;;;;;18.28;71.48;101441.66;5046923;28;20358;-84
2022/08/27 08:59:44;;;;;;;6.85;1.73;;;;;;;18.42;71.30;101435.50;5041668;28;20632;-84
2022/08/27 09:02:13;;;;;;;4.72;1.88;;;;;;;18.37;70.85;101442.34;5028531;28;21893;-84
2022/08/27 09:04:40;;;;;;;6.72;1.60;;;;;;;18.35;70.61;101445.16;5044971;28;21569;-85
2022/08/27 09:07:16;;;;;;;9.35;1.92;;;;;;;18.40;70.82;101447.19;5025101;28;20024;-84
2022/08/27 09:09:59;;;;;;;9.88;1.80;;;;;;;18.48;71.52;101453.13;5057114;28;20036;-83
2022/08/27 09:12:25;;;;;;;;;;;;;;;18.54;70.92;101451.53;5044701;28;20049;-83
2022/08/27 09:14:57;;;;;;;4.15;1.70;;;;;;;18.66;69.95;101457.03;5044101;28;19922;-85
2022/08/27 09:17:23;;;;;;;9.93;1.90;;;;;;;18.59;69.72;101457.03;5045169;28;20250;-83
2022/08/27 09:19:48;;;;;;;5.47;1.67;;;;;;;18.67;69.30;101454.22;5045244;28;21261;-83
2022/08/27 09:22:24;;;;;;;4.30;1.73;;;;;;;18.60;70.05;101455.19;5043812;28;20048;-84
2022/08/27 09:25:16;;;;;;;4.82;2.15;;;;;;;18.62;69.63;101453.19;5045128;28;20083;-84
2022/08/27 09:27:42;;;;;;;4.97;1.27;;;;;;;18.68;69.02;101457.66;5059436;28;20033;-84
2022/08/27 09:30:11;;;;;;;8.77;1.85;;;;;;;18.59;68.88;101457.03;5042924;28;20048;-83
2022/08/27 09:32:38;;;;;;;4.47;1.55;;;;;;;18.72;70.07;101463.34;5041364;28;20040;-84
2022/08/27 09:35:08;;;;;;;10.75;2.03;;;;;;;18.83;69.32;101455.75;5044426;28;20118;-84
2022/08/27 09:37:43;;;;;;;7.65;1.60;;;;;;;18.78;68.59;101457.31;5044145;28;20122;-84
2022/08/27 09:40:26;;;;;;;7.80;1.90;;;;;;;18.92;68.47;101453.78;5038983;28;20490;-84
2022/08/27 09:42:56;;;;;;;6.47;2.03;;;;;;;18.95;68.85;101447.31;5026154;28;20131;-84
2022/08/27 09:45:28;;;;;;;9.70;1.48;;;;;;;19.02;67.78;101445.53;5044969;28;20382;-84
2022/08/27 09:48:12;;;;;;;10.57;2.13;;;;;;;19.10;67.60;101440.13;5024742;28;20106;-84
2022/08/27 09:50:46;;;;;;;10.02;1.95;;;;;;;19.23;68.50;101442.78;5027651;28;20068;-83
2022/08/27 09:53:24;;;;;;;10.57;1.77;;;;;;;19.22;67.69;101441.16;5026237;28;20033;-83
2022/08/27 09:55:58;;;;;;;12.13;1.98;;;;;;;19.29;67.32;101448.25;5045910;28;20099;-83
2022/08/27 09:58:30;;;;;;;4.25;1.45;;;;;;;19.30;67.00;101449.88;5041117;28;20078;-83
2022/08/27 10:01:06;;;;;;;8.80;1.80;;;;;;;19.37;66.91;101455.97;5025616;28;20040;-84
2022/08/27 10:03:32;;;;;;;6.70;1.90;;;;;;;19.45;66.65;101453.94;5044898;28;20069;-83
2022/08/27 10:05:59;;;;;;;4.40;1.60;;;;;;;19.43;66.48;101448.06;5020996;28;20064;-83
2022/08/27 10:08:37;;;;;;;8.85;3.28;;;;;;;19.41;66.06;101457.97;5042809;28;20040;-83
2022/08/27 10:11:15;;;;;;;6.88;1.70;;;;;;;19.45;66.08;101456.56;5027034;28;20048;-83
2022/08/27 10:13:56;;;;;;;5.18;1.75;;;;;;;19.53;66.56;101457.41;5040968;28;20029;-82
2022/08/27 10:16:40;;;;;;;10.75;2.70;;;;;;;19.59;66.05;101444.28;5020896;28;20751;-83
2022/08/27 10:19:30;;;;;;;6.97;2.35;;;;;;;19.58;65.59;101450.53;5042559;28;20033;-84
2022/08/27 10:22:11;;;;;;;6.68;1.58;;;;;;;19.77;65.90;101446.34;5029047;28;20142;-84
2022/08/27 10:24:51;;;;;;;11.10;2.20;;;;;;;19.80;66.15;101450.41;5027188;28;20086;-85
2022/08/27 10:27:36;;;;;;;4.10;1.77;;;;;;;19.65;65.06;101455.81;5041317;28;20055;-84
2022/08/27 10:30:04;;;;;;;5.75;1.88;;;;;;;19.63;65.27;101455.22;5022613;28;20033;-84
2022/08/27 10:32:48;;;;;;;7.10;1.90;;;;;;;19.83;65.52;101447.34;5026847;28;20029;-83
2022/08/27 10:35:15;;;;;;;5.88;1.98;;;;;;;19.84;65.10;101449.78;5044428;28;20048;-83
2022/08/27 10:37:58;;;;;;;6.03;1.92;;;;;;;19.91;65.21;101449.81;5042590;28;20107;-82
2022/08/27 10:40:34;;;;;;;11.07;1.77;;;;;;;20.30;64.19;101445.50;5037874;28;20099;-84
2022/08/27 10:43:21;;;;;;;7.57;2.00;;;;;;;20.22;64.01;101440.47;5044648;28;20040;-83
2022/08/27 10:45:56;;;;;;;8.77;2.28;;;;;;;20.21;63.42;101449.38;5038134;28;20043;-83
2022/08/27 10:48:37;;;;;;;5.63;1.30;;;;;;;20.24;63.28;101443.69;5024966;28;20112;-84
2022/08/27 10:51:07;;;;;;;5.38;1.48;;;;;;;20.41;63.47;101449.34;5041980;28;20040;-84
2022/08/27 10:54:00;;;;;;;4.07;1.42;;;;;;;20.22;62.98;101449.16;5043512;28;20037;-83
2022/08/27 10:56:38;;;;;;;5.20;1.42;;;;;;;20.39;63.47;101452.19;5028412;28;20047;-84
2022/08/27 10:59:27;;;;;;;6.05;1.50;;;;;;;20.42;63.16;101451.78;5042163;28;20098;-84
2022/08/27 11:02:01;;;;;;;3.78;1.23;;;;;;;20.35;63.72;101445.72;5043526;28;20036;-83
2022/08/27 11:05:08;;;;;;;4.07;1.52;;;;;;;20.49;62.08;101446.50;5026622;28;20125;-84
2022/08/27 11:07:40;;;;;;;8.02;1.60;;;;;;;20.35;62.22;101450.97;4988032;28;20060;-84
2022/08/27 11:10:31;;;;;;;4.13;1.67;;;;;;;20.31;62.20;101451.59;5022571;28;20045;-82
2022/08/27 11:13:17;;;;;;;5.45;1.75;;;;;;;20.35;62.03;101450.19;5045091;28;20850;-83
2022/08/27 11:15:47;;;;;;;5.80;1.80;;;;;;;20.55;63.03;101447.50;5029570;28;20036;-83
2022/08/27 11:18:34;;;;;;;8.57;1.17;;;;;;;20.56;62.18;101443.84;5043676;28;20030;-83
2022/08/27 11:21:24;;;;;;;5.35;1.25;;;;;;;20.51;61.34;101441.84;5044397;28;20029;-83
2022/08/27 11:23:57;;;;;;;5.38;2.00;;;;;;;20.57;60.85;101443.66;5027167;28;20041;-83
2022/08/27 11:26:23;;;;;;;6.35;1.67;;;;;;;20.67;61.07;101451.16;5027309;28;20119;-83
2022/08/27 11:28:55;;;;;;;6.32;1.88;;;;;;;20.75;60.14;101437.72;5039611;28;20037;-84
2022/08/27 11:31:24;;;;;;;;;;;;;;;20.70;60.35;101440.19;5025279;28;20025;-82
2022/08/27 11:34:02;;;;;;;6.70;1.40;;;;;;;20.80;60.65;101440.56;5026886;28;19913;-81
2022/08/27 11:36:30;;;;;;;6.20;1.75;;;;;;;20.86;60.00;101448.66;5028965;28;20785;-83
2022/08/27 11:39:20;;;;;;;4.78;1.15;;;;;;;21.08;60.31;101434.16;5050362;28;20065;-83
2022/08/27 11:41:48;;;;;;;10.27;1.35;;;;;;;20.96;59.34;101439.31;5034194;28;20074;-83
2022/08/27 11:44:16;;;;;;;4.32;1.17;;;;;;;20.96;59.58;101431.38;5046363;28;20041;-83